sensor_id;sensor_type;location;lat;lon;timestamp;temperature;humidity
20068;DHT22;10194;50.824;7.134;2023-09-19T00:01:42;15.00;99.90
20068;DHT22;10194;50.824;7.134;2023-09-19T00:04:14;15.00;99.90
20068;DHT22;10194;50.824;7.134;2023-09-19T00:06:40;14.90;99.90
20068;DHT22;10194;50.824;7.134;2023-09-19T00:09:06;14.80;99.90
20068;DHT22;10194;50.824;7.134;2023-09-19T00:11:38;14.80;99.90
20068;DHT22;10194;50.824;7.134;2023-09-19T00:14:04;14.80;99.90
20068;DHT22;10194;50.824;7.134;2023-09-19T00:16:34;14.80;99.90
20068;DHT22;10194;50.824;7.134;2023-09-19T00:19:01;14.80;99.90
20068;DHT22;10194;50.824;7.134;2023-09-19T00:21:33;14.80;99.90
20068;DHT22;10194;50.824;7.134;2023-09-19T00:23:59;14.80;99.90
20068;DHT22;10194;50.824;7.134;2023-09-19T00:26:25;14.70;99.90
20068;DHT22;10194;50.824;7.134;2023-09-19T00:28:53;14.70;99.90
20068;DHT22;10194;50.824;7.134;2023-09-19T00:31:19;14.80;99.90
20068;DHT22;10194;50.824;7.134;2023-09-19T00:33:45;14.80;99.90
20068;DHT22;10194;50.824;7.134;2023-09-19T00:36:11;14.80;99.90
20068;DHT22;10194;50.824;7.134;2023-09-19T00:38:36;14.70;99.90
20068;DHT22;10194;50.824;7.134;2023-09-19T00:41:02;14.70;99.90
20068;DHT22;10194;50.824;7.134;2023-09-19T00:43:28;14.80;99.90
20068;DHT22;10194;50.824;7.134;2023-09-19T00:45:56;14.70;99.90
20068;DHT22;10194;50.824;7.134;2023-09-19T00:48:22;14.70;99.90
20068;DHT22;10194;50.824;7.134;2023-09-19T00:50:51;14.60;99.90
20068;DHT22;10194;50.824;7.134;2023-09-19T00:53:21;14.60;99.90
20068;DHT22;10194;50.824;7.134;2023-09-19T00:55:50;14.60;99.90
20068;DHT22;10194;50.824;7.134;2023-09-19T00:58:18;14.60;99.90
20068;DHT22;10194;50.824;7.134;2023-09-19T01:00:44;14.60;99.90
20068;DHT22;10194;50.824;7.134;2023-09-19T01:03:11;14.60;99.90
20068;DHT22;10194;50.824;7.134;2023-09-19T01:05:38;14.60;99.90
20068;DHT22;10194;50.824;7.134;2023-09-19T01:08:05;14.60;99.90
20068;DHT22;10194;50.824;7.134;2023-09-19T01:10:32;14.60;99.90
20068;DHT22;10194;50.824;7.134;2023-09-19T01:13:29;14.60;99.90
20068;DHT22;10194;50.824;7.134;2023-09-19T01:22:37;14.90;99.90
20068;DHT22;10194;50.824;7.134;2023-09-19T01:25:28;15.00;99.90
20068;DHT22;10194;50.824;7.134;2023-09-19T01:28:29;15.10;99.90
20068;DHT22;10194;50.824;7.134;2023-09-19T01:31:20;15.20;99.90
20068;DHT22;10194;50.824;7.134;2023-09-19T01:34:02;15.30;99.90
20068;DHT22;10194;50.824;7.134;2023-09-19T01:36:37;15.30;99.90
20068;DHT22;10194;50.824;7.134;2023-09-19T01:39:09;15.30;99.90
20068;DHT22;10194;50.824;7.134;2023-09-19T01:41:51;15.30;99.90
20068;DHT22;10194;50.824;7.134;2023-09-19T01:44:36;15.40;99.90
20068;DHT22;10194;50.824;7.134;2023-09-19T01:47:35;15.50;99.90
20068;DHT22;10194;50.824;7.134;2023-09-19T01:53:17;15.40;99.90
20068;DHT22;10194;50.824;7.134;2023-09-19T01:55:50;15.50;99.90
20068;DHT22;10194;50.824;7.134;2023-09-19T02:01:14;15.50;99.90
20068;DHT22;10194;50.824;7.134;2023-09-19T02:03:43;15.60;99.90
20068;DHT22;10194;50.824;7.134;2023-09-19T02:06:17;15.60;99.90
20068;DHT22;10194;50.824;7.134;2023-09-19T02:08:43;15.70;99.90
20068;DHT22;10194;50.824;7.134;2023-09-19T02:11:11;15.80;99.90
20068;DHT22;10194;50.824;7.134;2023-09-19T02:13:38;15.80;99.90
20068;DHT22;10194;50.824;7.134;2023-09-19T02:16:05;15.80;99.90
20068;DHT22;10194;50.824;7.134;2023-09-19T02:18:31;15.80;99.90
20068;DHT22;10194;50.824;7.134;2023-09-19T02:21:00;15.80;99.90
20068;DHT22;10194;50.824;7.134;2023-09-19T02:23:27;15.80;99.90
20068;DHT22;10194;50.824;7.134;2023-09-19T02:25:55;15.70;99.90
20068;DHT22;10194;50.824;7.134;2023-09-19T02:28:26;15.70;99.90
20068;DHT22;10194;50.824;7.134;2023-09-19T02:30:59;15.60;99.90
20068;DHT22;10194;50.824;7.134;2023-09-19T02:33:25;15.60;99.90
20068;DHT22;10194;50.824;7.134;2023-09-19T02:35:55;15.50;99.90
20068;DHT22;10194;50.824;7.134;2023-09-19T02:38:23;15.50;99.90
20068;DHT22;10194;50.824;7.134;2023-09-19T02:40:51;15.40;99.90
20068;DHT22;10194;50.824;7.134;2023-09-19T02:43:18;15.40;99.90
20068;DHT22;10194;50.824;7.134;2023-09-19T02:45:45;15.50;99.90
20068;DHT22;10194;50.824;7.134;2023-09-19T02:48:12;15.40;99.90
20068;DHT22;10194;50.824;7.134;2023-09-19T02:50:38;15.30;99.90
20068;DHT22;10194;50.824;7.134;2023-09-19T02:53:05;15.30;99.90
20068;DHT22;10194;50.824;7.134;2023-09-19T02:55:32;15.30;99.90
20068;DHT22;10194;50.824;7.134;2023-09-19T02:57:58;15.30;99.90
20068;DHT22;10194;50.824;7.134;2023-09-19T03:00:24;15.20;99.90
20068;DHT22;10194;50.824;7.134;2023-09-19T03:02:52;15.10;99.90
20068;DHT22;10194;50.824;7.134;2023-09-19T03:05:19;15.10;99.90
20068;DHT22;10194;50.824;7.134;2023-09-19T03:07:47;15.10;99.90
20068;DHT22;10194;50.824;7.134;2023-09-19T03:10:20;15.00;99.90
20068;DHT22;10194;50.824;7.134;2023-09-19T03:12:47;15.00;99.90
20068;DHT22;10194;50.824;7.134;2023-09-19T03:15:14;14.90;99.90
20068;DHT22;10194;50.824;7.134;2023-09-19T03:17:44;14.90;99.90
20068;DHT22;10194;50.824;7.134;2023-09-19T03:20:11;14.90;99.90
20068;DHT22;10194;50.824;7.134;2023-09-19T03:22:39;14.80;99.90
20068;DHT22;10194;50.824;7.134;2023-09-19T03:25:06;14.80;99.90
20068;DHT22;10194;50.824;7.134;2023-09-19T03:27:36;14.70;99.90
20068;DHT22;10194;50.824;7.134;2023-09-19T03:30:04;14.70;99.90
20068;DHT22;10194;50.824;7.134;2023-09-19T03:32:34;14.60;99.90
20068;DHT22;10194;50.824;7.134;2023-09-19T03:35:08;14.60;99.90
20068;DHT22;10194;50.824;7.134;2023-09-19T03:37:34;14.60;99.90
20068;DHT22;10194;50.824;7.134;2023-09-19T03:40:00;14.60;99.90
20068;DHT22;10194;50.824;7.134;2023-09-19T03:42:30;14.60;99.90
20068;DHT22;10194;50.824;7.134;2023-09-19T03:44:56;14.60;99.90
20068;DHT22;10194;50.824;7.134;2023-09-19T03:47:22;14.50;99.90
20068;DHT22;10194;50.824;7.134;2023-09-19T03:49:48;14.50;99.90
20068;DHT22;10194;50.824;7.134;2023-09-19T03:52:14;14.40;99.90
20068;DHT22;10194;50.824;7.134;2023-09-19T03:54:42;14.30;99.90
20068;DHT22;10194;50.824;7.134;2023-09-19T03:57:08;14.30;99.90
20068;DHT22;10194;50.824;7.134;2023-09-19T03:59:35;14.30;99.90
20068;DHT22;10194;50.824;7.134;2023-09-19T04:02:01;14.20;99.90
20068;DHT22;10194;50.824;7.134;2023-09-19T04:04:27;14.30;99.90
20068;DHT22;10194;50.824;7.134;2023-09-19T04:06:54;14.20;99.90
20068;DHT22;10194;50.824;7.134;2023-09-19T04:09:20;14.10;99.90
20068;DHT22;10194;50.824;7.134;2023-09-19T04:11:46;14.00;99.90
20068;DHT22;10194;50.824;7.134;2023-09-19T04:14:11;14.00;99.90
20068;DHT22;10194;50.824;7.134;2023-09-19T04:16:37;14.00;99.90
20068;DHT22;10194;50.824;7.134;2023-09-19T04:19:04;14.10;99.90
20068;DHT22;10194;50.824;7.134;2023-09-19T04:21:30;14.10;99.90
20068;DHT22;10194;50.824;7.134;2023-09-19T04:23:57;14.10;99.90
20068;DHT22;10194;50.824;7.134;2023-09-19T04:26:23;14.00;99.90
20068;DHT22;10194;50.824;7.134;2023-09-19T04:28:48;14.10;99.90
20068;DHT22;10194;50.824;7.134;2023-09-19T04:31:14;14.10;99.90
20068;DHT22;10194;50.824;7.134;2023-09-19T04:33:42;14.10;99.90
20068;DHT22;10194;50.824;7.134;2023-09-19T04:36:08;14.10;99.90
20068;DHT22;10194;50.824;7.134;2023-09-19T04:38:35;14.00;99.90
20068;DHT22;10194;50.824;7.134;2023-09-19T04:41:01;14.00;99.90
20068;DHT22;10194;50.824;7.134;2023-09-19T04:43:26;13.90;99.90
20068;DHT22;10194;50.824;7.134;2023-09-19T04:45:53;13.90;99.90
20068;DHT22;10194;50.824;7.134;2023-09-19T04:48:22;13.80;99.90
20068;DHT22;10194;50.824;7.134;2023-09-19T04:50:49;13.70;99.90
20068;DHT22;10194;50.824;7.134;2023-09-19T04:53:19;13.70;99.90
20068;DHT22;10194;50.824;7.134;2023-09-19T04:55:50;13.70;99.90
20068;DHT22;10194;50.824;7.134;2023-09-19T04:58:18;13.70;99.90
20068;DHT22;10194;50.824;7.134;2023-09-19T05:00:45;13.60;99.90
20068;DHT22;10194;50.824;7.134;2023-09-19T05:03:11;13.60;99.90
20068;DHT22;10194;50.824;7.134;2023-09-19T05:05:36;13.60;99.90
20068;DHT22;10194;50.824;7.134;2023-09-19T05:08:04;13.60;99.90
20068;DHT22;10194;50.824;7.134;2023-09-19T05:10:32;13.60;99.90
20068;DHT22;10194;50.824;7.134;2023-09-19T05:12:57;13.70;99.90
20068;DHT22;10194;50.824;7.134;2023-09-19T05:15:23;13.70;99.90
20068;DHT22;10194;50.824;7.134;2023-09-19T05:17:50;13.70;99.90
20068;DHT22;10194;50.824;7.134;2023-09-19T05:20:17;13.80;99.90
20068;DHT22;10194;50.824;7.134;2023-09-19T05:23:05;13.80;99.90
20068;DHT22;10194;50.824;7.134;2023-09-19T05:25:39;13.80;99.90
20068;DHT22;10194;50.824;7.134;2023-09-19T05:28:06;13.90;99.90
20068;DHT22;10194;50.824;7.134;2023-09-19T05:30:33;13.90;99.90
20068;DHT22;10194;50.824;7.134;2023-09-19T05:33:01;13.90;99.90
20068;DHT22;10194;50.824;7.134;2023-09-19T05:35:30;13.90;99.90
20068;DHT22;10194;50.824;7.134;2023-09-19T05:37:56;13.90;99.90
20068;DHT22;10194;50.824;7.134;2023-09-19T05:40:24;14.00;99.90
20068;DHT22;10194;50.824;7.134;2023-09-19T05:42:50;14.00;99.90
20068;DHT22;10194;50.824;7.134;2023-09-19T05:45:17;14.00;99.90
20068;DHT22;10194;50.824;7.134;2023-09-19T05:47:49;14.00;99.90
20068;DHT22;10194;50.824;7.134;2023-09-19T05:50:16;14.00;99.90
20068;DHT22;10194;50.824;7.134;2023-09-19T05:52:43;14.00;99.90
20068;DHT22;10194;50.824;7.134;2023-09-19T05:55:17;14.10;99.90
20068;DHT22;10194;50.824;7.134;2023-09-19T05:57:43;14.10;99.90
20068;DHT22;10194;50.824;7.134;2023-09-19T06:00:16;14.10;99.90
20068;DHT22;10194;50.824;7.134;2023-09-19T06:02:43;14.20;99.90
20068;DHT22;10194;50.824;7.134;2023-09-19T06:05:10;14.20;99.90
20068;DHT22;10194;50.824;7.134;2023-09-19T06:07:37;14.30;99.90
20068;DHT22;10194;50.824;7.134;2023-09-19T06:10:04;14.30;99.90
20068;DHT22;10194;50.824;7.134;2023-09-19T06:12:37;14.40;99.90
20068;DHT22;10194;50.824;7.134;2023-09-19T06:15:09;14.40;99.90
20068;DHT22;10194;50.824;7.134;2023-09-19T06:17:41;14.50;99.90
20068;DHT22;10194;50.824;7.134;2023-09-19T06:20:08;14.60;99.90
20068;DHT22;10194;50.824;7.134;2023-09-19T06:22:44;14.60;99.90
20068;DHT22;10194;50.824;7.134;2023-09-19T06:25:12;14.70;99.90
20068;DHT22;10194;50.824;7.134;2023-09-19T06:27:47;14.70;99.90
20068;DHT22;10194;50.824;7.134;2023-09-19T06:30:14;14.70;99.90
20068;DHT22;10194;50.824;7.134;2023-09-19T06:32:41;14.80;99.90
20068;DHT22;10194;50.824;7.134;2023-09-19T06:35:15;14.90;99.90
20068;DHT22;10194;50.824;7.134;2023-09-19T06:37:42;14.90;99.90
20068;DHT22;10194;50.824;7.134;2023-09-19T06:40:10;14.90;99.90
20068;DHT22;10194;50.824;7.134;2023-09-19T06:42:43;15.10;99.90
20068;DHT22;10194;50.824;7.134;2023-09-19T06:45:13;15.10;99.90
20068;DHT22;10194;50.824;7.134;2023-09-19T06:47:44;15.10;99.90
20068;DHT22;10194;50.824;7.134;2023-09-19T06:50:11;15.20;99.90
20068;DHT22;10194;50.824;7.134;2023-09-19T06:52:43;15.30;99.90
20068;DHT22;10194;50.824;7.134;2023-09-19T06:55:08;15.40;99.90
20068;DHT22;10194;50.824;7.134;2023-09-19T06:57:39;15.40;99.90
20068;DHT22;10194;50.824;7.134;2023-09-19T07:00:09;15.60;99.90
20068;DHT22;10194;50.824;7.134;2023-09-19T07:03:05;15.70;99.90
20068;DHT22;10194;50.824;7.134;2023-09-19T07:05:34;15.90;99.90
20068;DHT22;10194;50.824;7.134;2023-09-19T07:08:05;16.10;99.90
20068;DHT22;10194;50.824;7.134;2023-09-19T07:10:32;16.20;99.90
20068;DHT22;10194;50.824;7.134;2023-09-19T07:13:03;16.30;99.90
20068;DHT22;10194;50.824;7.134;2023-09-19T07:15:38;16.30;99.90
20068;DHT22;10194;50.824;7.134;2023-09-19T07:18:07;16.30;99.90
20068;DHT22;10194;50.824;7.134;2023-09-19T07:20:36;16.30;99.90
20068;DHT22;10194;50.824;7.134;2023-09-19T07:23:02;16.50;99.90
20068;DHT22;10194;50.824;7.134;2023-09-19T07:25:28;16.60;99.90
20068;DHT22;10194;50.824;7.134;2023-09-19T07:27:58;16.60;99.90
20068;DHT22;10194;50.824;7.134;2023-09-19T07:30:27;16.80;99.90
20068;DHT22;10194;50.824;7.134;2023-09-19T07:32:54;17.00;99.90
20068;DHT22;10194;50.824;7.134;2023-09-19T07:35:20;17.20;99.90
20068;DHT22;10194;50.824;7.134;2023-09-19T07:37:46;17.30;99.90
20068;DHT22;10194;50.824;7.134;2023-09-19T07:40:17;17.40;99.90
20068;DHT22;10194;50.824;7.134;2023-09-19T07:42:43;17.50;99.90
20068;DHT22;10194;50.824;7.134;2023-09-19T07:45:10;17.50;99.90
20068;DHT22;10194;50.824;7.134;2023-09-19T07:47:46;17.60;99.90
20068;DHT22;10194;50.824;7.134;2023-09-19T07:50:13;17.60;99.90
20068;DHT22;10194;50.824;7.134;2023-09-19T07:52:41;17.50;99.90
20068;DHT22;10194;50.824;7.134;2023-09-19T07:55:08;17.60;99.90
20068;DHT22;10194;50.824;7.134;2023-09-19T07:57:35;17.60;99.90
20068;DHT22;10194;50.824;7.134;2023-09-19T08:00:01;17.70;99.90
20068;DHT22;10194;50.824;7.134;2023-09-19T08:02:34;17.80;99.90
20068;DHT22;10194;50.824;7.134;2023-09-19T08:05:00;18.00;99.90
20068;DHT22;10194;50.824;7.134;2023-09-19T08:07:26;18.20;99.90
20068;DHT22;10194;50.824;7.134;2023-09-19T08:09:54;18.20;99.90
20068;DHT22;10194;50.824;7.134;2023-09-19T08:12:19;18.20;99.90
20068;DHT22;10194;50.824;7.134;2023-09-19T08:14:49;18.10;99.90
20068;DHT22;10194;50.824;7.134;2023-09-19T08:17:15;18.10;99.90
20068;DHT22;10194;50.824;7.134;2023-09-19T08:19:41;18.20;99.90
20068;DHT22;10194;50.824;7.134;2023-09-19T08:22:10;18.30;99.90
20068;DHT22;10194;50.824;7.134;2023-09-19T08:24:36;18.20;99.90
20068;DHT22;10194;50.824;7.134;2023-09-19T08:27:04;18.30;99.90
20068;DHT22;10194;50.824;7.134;2023-09-19T08:29:31;18.40;99.90
20068;DHT22;10194;50.824;7.134;2023-09-19T08:31:57;18.60;99.90
20068;DHT22;10194;50.824;7.134;2023-09-19T08:34:26;18.70;99.90
20068;DHT22;10194;50.824;7.134;2023-09-19T08:36:55;18.90;99.90
20068;DHT22;10194;50.824;7.134;2023-09-19T08:39:24;18.90;99.90
20068;DHT22;10194;50.824;7.134;2023-09-19T08:41:58;19.00;99.90
20068;DHT22;10194;50.824;7.134;2023-09-19T08:44:28;19.20;99.90
20068;DHT22;10194;50.824;7.134;2023-09-19T08:47:08;19.30;99.90
20068;DHT22;10194;50.824;7.134;2023-09-19T08:50:05;19.20;99.90
20068;DHT22;10194;50.824;7.134;2023-09-19T08:52:43;19.50;99.90
20068;DHT22;10194;50.824;7.134;2023-09-19T08:55:13;19.60;99.90
20068;DHT22;10194;50.824;7.134;2023-09-19T08:57:46;19.60;99.90
20068;DHT22;10194;50.824;7.134;2023-09-19T09:00:16;19.50;99.90
20068;DHT22;10194;50.824;7.134;2023-09-19T09:02:44;19.30;99.90
20068;DHT22;10194;50.824;7.134;2023-09-19T09:05:11;19.40;99.90
20068;DHT22;10194;50.824;7.134;2023-09-19T09:07:40;19.40;99.90
20068;DHT22;10194;50.824;7.134;2023-09-19T09:10:07;19.50;99.90
20068;DHT22;10194;50.824;7.134;2023-09-19T09:12:35;19.60;99.90
20068;DHT22;10194;50.824;7.134;2023-09-19T09:15:06;19.70;99.90
20068;DHT22;10194;50.824;7.134;2023-09-19T09:17:34;19.80;99.90
20068;DHT22;10194;50.824;7.134;2023-09-19T09:20:00;19.90;99.90
20068;DHT22;10194;50.824;7.134;2023-09-19T09:22:25;19.90;99.90
20068;DHT22;10194;50.824;7.134;2023-09-19T09:24:56;19.90;99.90
20068;DHT22;10194;50.824;7.134;2023-09-19T09:27:32;20.00;99.90
20068;DHT22;10194;50.824;7.134;2023-09-19T09:29:59;20.00;99.90
20068;DHT22;10194;50.824;7.134;2023-09-19T09:32:28;20.00;99.90
20068;DHT22;10194;50.824;7.134;2023-09-19T09:34:59;20.00;99.90
20068;DHT22;10194;50.824;7.134;2023-09-19T09:37:26;19.80;99.90
20068;DHT22;10194;50.824;7.134;2023-09-19T09:39:59;19.80;99.90
20068;DHT22;10194;50.824;7.134;2023-09-19T09:42:40;20.00;99.90
20068;DHT22;10194;50.824;7.134;2023-09-19T09:45:22;20.00;99.90
20068;DHT22;10194;50.824;7.134;2023-09-19T09:47:58;20.10;99.90
20068;DHT22;10194;50.824;7.134;2023-09-19T09:50:33;20.10;99.90
20068;DHT22;10194;50.824;7.134;2023-09-19T09:53:22;20.30;99.90
20068;DHT22;10194;50.824;7.134;2023-09-19T09:58:30;20.50;99.90
20068;DHT22;10194;50.824;7.134;2023-09-19T10:01:01;20.60;99.90
20068;DHT22;10194;50.824;7.134;2023-09-19T10:03:43;20.60;99.90
20068;DHT22;10194;50.824;7.134;2023-09-19T10:06:18;20.50;99.90
20068;DHT22;10194;50.824;7.134;2023-09-19T10:08:58;20.60;99.90
20068;DHT22;10194;50.824;7.134;2023-09-19T10:11:30;20.50;99.90
20068;DHT22;10194;50.824;7.134;2023-09-19T10:14:00;20.50;99.90
20068;DHT22;10194;50.824;7.134;2023-09-19T10:16:30;20.50;99.90
20068;DHT22;10194;50.824;7.134;2023-09-19T10:19:00;20.70;99.90
20068;DHT22;10194;50.824;7.134;2023-09-19T10:21:28;20.80;99.90
20068;DHT22;10194;50.824;7.134;2023-09-19T10:23:59;21.00;99.90
20068;DHT22;10194;50.824;7.134;2023-09-19T10:26:29;20.90;99.90
20068;DHT22;10194;50.824;7.134;2023-09-19T10:28:57;20.70;99.90
20068;DHT22;10194;50.824;7.134;2023-09-19T10:31:29;20.80;99.90
20068;DHT22;10194;50.824;7.134;2023-09-19T10:34:03;21.10;99.90
20068;DHT22;10194;50.824;7.134;2023-09-19T10:36:33;21.10;99.90
20068;DHT22;10194;50.824;7.134;2023-09-19T10:39:02;20.90;99.90
20068;DHT22;10194;50.824;7.134;2023-09-19T10:41:34;21.00;99.90
20068;DHT22;10194;50.824;7.134;2023-09-19T10:44:04;21.20;99.90
20068;DHT22;10194;50.824;7.134;2023-09-19T10:46:33;21.10;99.90
20068;DHT22;10194;50.824;7.134;2023-09-19T10:49:00;21.20;99.90
20068;DHT22;10194;50.824;7.134;2023-09-19T10:51:30;21.10;99.90
20068;DHT22;10194;50.824;7.134;2023-09-19T10:54:08;21.20;99.90
20068;DHT22;10194;50.824;7.134;2023-09-19T10:56:59;21.50;99.90
20068;DHT22;10194;50.824;7.134;2023-09-19T10:59:26;21.60;99.90
20068;DHT22;10194;50.824;7.134;2023-09-19T11:02:00;21.60;99.90
20068;DHT22;10194;50.824;7.134;2023-09-19T11:04:42;21.70;99.90
20068;DHT22;10194;50.824;7.134;2023-09-19T11:07:12;21.60;99.90
20068;DHT22;10194;50.824;7.134;2023-09-19T11:09:56;21.30;99.90
20068;DHT22;10194;50.824;7.134;2023-09-19T11:15:07;21.40;99.90
20068;DHT22;10194;50.824;7.134;2023-09-19T11:17:35;21.40;99.90
20068;DHT22;10194;50.824;7.134;2023-09-19T11:30:35;21.00;99.90
20068;DHT22;10194;50.824;7.134;2023-09-19T11:33:22;21.00;99.90
20068;DHT22;10194;50.824;7.134;2023-09-19T11:43:51;21.30;99.90
20068;DHT22;10194;50.824;7.134;2023-09-19T11:46:20;21.30;99.90
20068;DHT22;10194;50.824;7.134;2023-09-19T11:48:50;21.20;99.90
20068;DHT22;10194;50.824;7.134;2023-09-19T11:51:21;21.00;99.90
20068;DHT22;10194;50.824;7.134;2023-09-19T11:53:50;20.80;99.90
20068;DHT22;10194;50.824;7.134;2023-09-19T11:56:19;21.10;99.90
20068;DHT22;10194;50.824;7.134;2023-09-19T11:58:46;21.30;99.90
20068;DHT22;10194;50.824;7.134;2023-09-19T12:01:20;21.10;99.90
20068;DHT22;10194;50.824;7.134;2023-09-19T12:03:53;21.00;99.90
20068;DHT22;10194;50.824;7.134;2023-09-19T12:06:20;21.10;99.90
20068;DHT22;10194;50.824;7.134;2023-09-19T12:08:47;21.30;99.90
20068;DHT22;10194;50.824;7.134;2023-09-19T12:11:15;21.10;99.90
20068;DHT22;10194;50.824;7.134;2023-09-19T12:13:45;21.10;99.90
20068;DHT22;10194;50.824;7.134;2023-09-19T12:16:16;20.90;99.00
20068;DHT22;10194;50.824;7.134;2023-09-19T12:18:47;20.90;99.90
20068;DHT22;10194;50.824;7.134;2023-09-19T12:21:26;20.90;99.90
20068;DHT22;10194;50.824;7.134;2023-09-19T12:24:04;20.90;99.90
20068;DHT22;10194;50.824;7.134;2023-09-19T12:26:42;20.90;99.90
20068;DHT22;10194;50.824;7.134;2023-09-19T12:29:13;21.00;99.90
20068;DHT22;10194;50.824;7.134;2023-09-19T12:31:53;21.00;99.90
20068;DHT22;10194;50.824;7.134;2023-09-19T12:34:27;21.00;99.90
20068;DHT22;10194;50.824;7.134;2023-09-19T12:37:07;21.00;99.90
20068;DHT22;10194;50.824;7.134;2023-09-19T12:39:45;20.90;99.90
20068;DHT22;10194;50.824;7.134;2023-09-19T12:42:26;21.00;99.90
20068;DHT22;10194;50.824;7.134;2023-09-19T12:44:58;20.90;99.90
20068;DHT22;10194;50.824;7.134;2023-09-19T12:47:27;20.80;99.90
20068;DHT22;10194;50.824;7.134;2023-09-19T12:50:07;20.70;99.90
20068;DHT22;10194;50.824;7.134;2023-09-19T12:52:46;20.70;99.90
20068;DHT22;10194;50.824;7.134;2023-09-19T12:55:30;20.70;99.90
20068;DHT22;10194;50.824;7.134;2023-09-19T12:58:13;20.90;99.90
20068;DHT22;10194;50.824;7.134;2023-09-19T13:00:44;20.90;99.90
20068;DHT22;10194;50.824;7.134;2023-09-19T13:05:57;21.00;99.90
20068;DHT22;10194;50.824;7.134;2023-09-19T13:08:28;21.10;99.90
20068;DHT22;10194;50.824;7.134;2023-09-19T13:11:16;20.90;99.90
20068;DHT22;10194;50.824;7.134;2023-09-19T13:14:22;21.00;99.90
20068;DHT22;10194;50.824;7.134;2023-09-19T13:17:04;21.00;99.90
20068;DHT22;10194;50.824;7.134;2023-09-19T13:19:48;21.00;99.90
20068;DHT22;10194;50.824;7.134;2023-09-19T13:22:37;21.10;99.90
20068;DHT22;10194;50.824;7.134;2023-09-19T13:25:07;21.00;99.60
20068;DHT22;10194;50.824;7.134;2023-09-19T13:27:39;21.00;99.90
20068;DHT22;10194;50.824;7.134;2023-09-19T13:30:07;21.10;99.90
20068;DHT22;10194;50.824;7.134;2023-09-19T13:32:33;21.20;99.90
20068;DHT22;10194;50.824;7.134;2023-09-19T13:34:59;21.10;99.90
20068;DHT22;10194;50.824;7.134;2023-09-19T13:37:25;21.10;99.90
20068;DHT22;10194;50.824;7.134;2023-09-19T13:39:52;21.00;99.90
20068;DHT22;10194;50.824;7.134;2023-09-19T13:42:19;20.80;99.90
20068;DHT22;10194;50.824;7.134;2023-09-19T13:44:47;20.90;99.90
20068;DHT22;10194;50.824;7.134;2023-09-19T13:47:13;20.90;99.90
20068;DHT22;10194;50.824;7.134;2023-09-19T13:49:40;20.90;99.90
20068;DHT22;10194;50.824;7.134;2023-09-19T13:52:07;20.80;99.90
20068;DHT22;10194;50.824;7.134;2023-09-19T13:54:34;20.80;99.90
20068;DHT22;10194;50.824;7.134;2023-09-19T13:57:00;20.80;99.90
20068;DHT22;10194;50.824;7.134;2023-09-19T13:59:26;20.80;99.90
20068;DHT22;10194;50.824;7.134;2023-09-19T14:01:54;21.00;99.90
20068;DHT22;10194;50.824;7.134;2023-09-19T14:04:21;21.20;99.90
20068;DHT22;10194;50.824;7.134;2023-09-19T14:06:47;21.20;99.90
20068;DHT22;10194;50.824;7.134;2023-09-19T14:09:13;21.10;99.90
20068;DHT22;10194;50.824;7.134;2023-09-19T14:11:39;21.00;99.90
20068;DHT22;10194;50.824;7.134;2023-09-19T14:14:05;21.00;99.90
20068;DHT22;10194;50.824;7.134;2023-09-19T14:16:31;21.20;99.90
20068;DHT22;10194;50.824;7.134;2023-09-19T14:18:57;21.30;99.90
20068;DHT22;10194;50.824;7.134;2023-09-19T14:21:23;21.20;99.90
20068;DHT22;10194;50.824;7.134;2023-09-19T14:23:49;21.20;99.90
20068;DHT22;10194;50.824;7.134;2023-09-19T14:26:16;21.30;99.90
20068;DHT22;10194;50.824;7.134;2023-09-19T14:28:42;21.20;99.80
20068;DHT22;10194;50.824;7.134;2023-09-19T14:31:09;21.30;99.90
20068;DHT22;10194;50.824;7.134;2023-09-19T14:33:35;21.30;99.90
20068;DHT22;10194;50.824;7.134;2023-09-19T14:36:06;21.40;99.90
20068;DHT22;10194;50.824;7.134;2023-09-19T14:38:34;21.30;99.80
20068;DHT22;10194;50.824;7.134;2023-09-19T14:41:03;21.40;99.90
20068;DHT22;10194;50.824;7.134;2023-09-19T14:43:30;21.40;99.90
20068;DHT22;10194;50.824;7.134;2023-09-19T14:46:07;21.30;99.90
20068;DHT22;10194;50.824;7.134;2023-09-19T14:48:36;21.40;99.50
20068;DHT22;10194;50.824;7.134;2023-09-19T14:51:03;21.30;99.90
20068;DHT22;10194;50.824;7.134;2023-09-19T14:53:30;21.30;99.90
20068;DHT22;10194;50.824;7.134;2023-09-19T14:55:59;21.20;98.80
20068;DHT22;10194;50.824;7.134;2023-09-19T14:58:27;21.20;99.90
20068;DHT22;10194;50.824;7.134;2023-09-19T15:01:05;21.20;99.90
20068;DHT22;10194;50.824;7.134;2023-09-19T15:03:33;21.20;99.90
20068;DHT22;10194;50.824;7.134;2023-09-19T15:06:04;21.20;99.90
20068;DHT22;10194;50.824;7.134;2023-09-19T15:08:31;21.10;99.90
20068;DHT22;10194;50.824;7.134;2023-09-19T15:11:04;21.00;99.90
20068;DHT22;10194;50.824;7.134;2023-09-19T15:13:31;20.90;99.90
20068;DHT22;10194;50.824;7.134;2023-09-19T15:16:07;21.00;99.90
20068;DHT22;10194;50.824;7.134;2023-09-19T15:18:35;21.10;99.90
20068;DHT22;10194;50.824;7.134;2023-09-19T15:21:06;21.00;99.80
20068;DHT22;10194;50.824;7.134;2023-09-19T15:23:36;20.90;99.30
20068;DHT22;10194;50.824;7.134;2023-09-19T15:26:08;20.90;99.50
20068;DHT22;10194;50.824;7.134;2023-09-19T15:28:35;20.80;99.90
20068;DHT22;10194;50.824;7.134;2023-09-19T15:31:10;20.70;99.90
20068;DHT22;10194;50.824;7.134;2023-09-19T15:33:37;20.70;99.90
20068;DHT22;10194;50.824;7.134;2023-09-19T15:36:04;20.60;99.90
20068;DHT22;10194;50.824;7.134;2023-09-19T15:38:31;20.60;99.90
20068;DHT22;10194;50.824;7.134;2023-09-19T15:41:00;20.60;99.90
20068;DHT22;10194;50.824;7.134;2023-09-19T15:43:26;20.70;99.90
20068;DHT22;10194;50.824;7.134;2023-09-19T15:45:52;20.70;99.90
20068;DHT22;10194;50.824;7.134;2023-09-19T15:48:18;20.70;99.90
20068;DHT22;10194;50.824;7.134;2023-09-19T15:50:46;20.60;99.90
20068;DHT22;10194;50.824;7.134;2023-09-19T15:53:12;20.50;99.90
20068;DHT22;10194;50.824;7.134;2023-09-19T15:55:41;20.60;99.90
20068;DHT22;10194;50.824;7.134;2023-09-19T15:58:07;20.50;99.90
20068;DHT22;10194;50.824;7.134;2023-09-19T16:00:34;20.50;99.90
20068;DHT22;10194;50.824;7.134;2023-09-19T16:03:00;20.50;99.90
20068;DHT22;10194;50.824;7.134;2023-09-19T16:05:26;20.60;99.90
20068;DHT22;10194;50.824;7.134;2023-09-19T16:07:53;20.60;99.90
20068;DHT22;10194;50.824;7.134;2023-09-19T16:10:19;20.60;99.90
20068;DHT22;10194;50.824;7.134;2023-09-19T16:12:46;20.60;99.90
20068;DHT22;10194;50.824;7.134;2023-09-19T16:15:11;20.60;99.90
20068;DHT22;10194;50.824;7.134;2023-09-19T16:17:39;20.50;99.90
20068;DHT22;10194;50.824;7.134;2023-09-19T16:20:06;20.50;99.90
20068;DHT22;10194;50.824;7.134;2023-09-19T16:22:38;20.40;99.90
20068;DHT22;10194;50.824;7.134;2023-09-19T16:25:06;20.40;99.90
20068;DHT22;10194;50.824;7.134;2023-09-19T16:27:31;20.50;99.90